Time;durP1;ratioP1;P1;durP2;ratioP2;P2;SDS_P1;SDS_P2;PMS_P1;PMS_P2;Temp;Humidity;BMP_temperature;BMP_pressure;BME280_temperature;BME280_humidity;BME280_pressure;Samples;Min_cycle;Max_cycle;Signal;HPM_P1;HPM_P2
2022/08/27 00:00:40;;;;;;;1.53;1.40;;;24.80;46.70;;;;;;6178870;23;20865;-61
2022/08/27 00:03:06;;;;;;;1.60;1.50;;;24.80;46.80;;;;;;6201156;22;20515;-61
2022/08/27 00:05:32;;;;;;;2.00;1.43;;;24.80;46.70;;;;;;6198160;22;20742;-63
2022/08/27 00:07:57;;;;;;;1.43;1.33;;;24.80;46.70;;;;;;6200924;22;20205;-60
2022/08/27 00:10:26;;;;;;;1.40;1.30;;;24.80;46.70;;;;;;6196069;22;20190;-63
2022/08/27 00:12:52;;;;;;;1.67;1.53;;;24.80;46.70;;;;;;6199706;22;20201;-62
2022/08/27 00:15:18;;;;;;;1.53;1.43;;;24.80;46.70;;;;;;6199933;22;20427;-62
2022/08/27 00:17:45;;;;;;;1.60;1.50;;;24.80;46.70;;;;;;6200490;22;20493;-62
2022/08/27 00:20:15;;;;;;;1.60;1.50;;;24.80;46.70;;;;;;6197573;22;20201;-62
2022/08/27 00:22:42;;;;;;;1.50;1.40;;;24.80;46.70;;;;;;6197238;22;20415;-62
2022/08/27 00:25:08;;;;;;;1.70;1.60;;;24.80;46.70;;;;;;6198669;22;20412;-63
2022/08/27 00:27:33;;;;;;;1.30;1.20;;;24.80;46.70;;;;;;6179127;22;20534;-61
2022/08/27 00:29:59;;;;;;;1.77;1.63;;;24.80;46.70;;;;;;6201949;22;20792;-61
2022/08/27 00:32:24;;;;;;;1.70;1.60;;;24.80;46.70;;;;;;6199309;22;20205;-63
2022/08/27 00:34:51;;;;;;;1.60;1.50;;;24.80;46.70;;;;;;6200575;22;20198;-62
2022/08/27 00:37:17;;;;;;;1.73;1.60;;;24.80;46.60;;;;;;6200726;22;20198;-61
2022/08/27 00:39:42;;;;;;;1.40;1.30;;;24.80;46.70;;;;;;6200270;22;20411;-62
2022/08/27 00:42:08;;;;;;;1.60;1.50;;;24.80;46.70;;;;;;6199825;22;20339;-64
2022/08/27 00:44:35;;;;;;;2.30;2.20;;;24.80;46.60;;;;;;6205728;22;20190;-63
2022/08/27 00:47:05;;;;;;;1.50;1.40;;;24.80;46.60;;;;;;6202115;22;20277;-61
2022/08/27 00:49:41;;;;;;;2.10;1.47;;;24.80;47.40;;;;;;6201001;22;20428;-60
2022/08/27 00:52:17;;;;;;;1.53;1.40;;;24.80;46.60;;;;;;6203706;22;20498;-62
2022/08/27 00:54:43;;;;;;;1.63;1.53;;;24.80;46.60;;;;;;6192137;22;20411;-61
2022/08/27 00:57:08;;;;;;;1.60;1.50;;;24.80;46.60;;;;;;6194676;23;20829;-62
2022/08/27 00:59:35;;;;;;;1.77;1.40;;;24.80;46.60;;;;;;6173753;23;20244;-61
2022/08/27 01:02:19;;;;;;;1.43;1.30;;;24.70;46.50;;;;;;6199668;22;20194;-65
2022/08/27 01:04:59;;;;;;;1.70;1.60;;;24.70;46.50;;;;;;6192373;22;20423;-61
2022/08/27 01:07:27;;;;;;;1.50;1.40;;;24.70;46.50;;;;;;6172332;22;20419;-65
2022/08/27 01:09:56;;;;;;;1.57;1.47;;;24.80;46.60;;;;;;6198854;22;20411;-62
2022/08/27 01:12:21;;;;;;;3.30;1.60;;;24.70;47.30;;;;;;6198821;23;21084;-64
2022/08/27 01:14:47;;;;;;;1.67;1.57;;;24.70;46.60;;;;;;6201048;22;20910;-61
2022/08/27 01:17:14;;;;;;;1.60;1.50;;;24.70;46.50;;;;;;6173033;23;20517;-62
2022/08/27 01:19:42;;;;;;;1.73;1.63;;;24.70;46.50;;;;;;6190203;23;20201;-62
2022/08/27 01:22:32;;;;;;;1.60;1.50;;;24.70;46.50;;;;;;6202377;22;20969;-62
2022/08/27 01:25:04;;;;;;;1.43;1.33;;;24.70;46.50;;;;;;6181526;22;20417;-60
2022/08/27 01:27:30;;;;;;;1.80;1.60;;;24.70;46.50;;;;;;6200181;22;20414;-60
2022/08/27 01:29:56;;;;;;;1.60;1.50;;;24.70;46.50;;;;;;6198164;22;20434;-62
2022/08/27 01:32:28;;;;;;;1.77;1.67;;;24.80;46.60;;;;;;6198642;22;20185;-63
2022/08/27 01:34:54;;;;;;;1.70;1.57;;;24.70;46.60;;;;;;6199582;22;20438;-62
2022/08/27 01:37:21;;;;;;;1.60;1.50;;;24.70;46.50;;;;;;6203200;22;20419;-61
2022/08/27 01:39:47;;;;;;;3.73;1.60;;;24.70;46.50;;;;;;6199375;22;20415;-64
2022/08/27 01:42:17;;;;;;;1.47;1.37;;;24.70;46.50;;;;;;6198384;22;20852;-60
2022/08/27 01:44:52;;;;;;;1.40;1.30;;;24.70;46.50;;;;;;6201020;22;20198;-63
2022/08/27 01:47:19;;;;;;;1.70;1.60;;;24.70;46.50;;;;;;6200678;22;20414;-62
2022/08/27 01:49:45;;;;;;;1.50;1.40;;;24.70;46.50;;;;;;6197637;22;20450;-60
2022/08/27 01:52:13;;;;;;;1.70;1.60;;;24.70;46.50;;;;;;6203849;22;20419;-61
2022/08/27 01:54:39;;;;;;;1.70;1.60;;;24.70;46.50;;;;;;6201819;22;20445;-63
2022/08/27 01:57:04;;;;;;;1.47;1.37;;;24.70;46.50;;;;;;6202608;22;20789;-61
2022/08/27 01:59:30;;;;;;;1.40;1.30;;;24.70;46.50;;;;;;6201795;22;20209;-61
2022/08/27 02:01:56;;;;;;;1.80;1.70;;;24.70;46.50;;;;;;6201527;22;20832;-61
2022/08/27 02:04:22;;;;;;;1.60;1.50;;;24.70;46.40;;;;;;6198794;22;20221;-60
2022/08/27 02:06:48;;;;;;;1.63;1.37;;;24.70;46.40;;;;;;6200959;22;20817;-64
2022/08/27 02:09:14;;;;;;;1.30;1.20;;;24.70;46.40;;;;;;6169402;22;20427;-65
2022/08/27 02:11:39;;;;;;;1.60;1.50;;;24.70;46.40;;;;;;6174576;22;20197;-60
2022/08/27 02:14:05;;;;;;;1.40;1.30;;;24.70;46.40;;;;;;6167948;22;20634;-64
2022/08/27 02:16:35;;;;;;;2.00;1.80;;;24.70;46.30;;;;;;6172302;22;20191;-65
2022/08/27 02:19:01;;;;;;;1.50;1.40;;;24.70;46.30;;;;;;6168598;22;20685;-61
2022/08/27 02:21:27;;;;;;;1.43;1.33;;;24.70;46.30;;;;;;6170677;22;20417;-61
2022/08/27 02:23:54;;;;;;;1.70;1.60;;;24.70;46.30;;;;;;6170740;22;20742;-61
2022/08/27 02:26:20;;;;;;;1.67;1.57;;;24.70;46.30;;;;;;6169120;22;20218;-62
2022/08/27 02:28:46;;;;;;;1.43;1.33;;;24.70;46.20;;;;;;6169634;22;20498;-62
2022/08/27 02:31:11;;;;;;;1.67;1.40;;;24.70;46.30;;;;;;6168964;22;20416;-61
2022/08/27 02:33:37;;;;;;;1.60;1.50;;;24.70;46.20;;;;;;6169738;22;20679;-65
2022/08/27 02:36:03;;;;;;;1.70;1.37;;;24.70;46.20;;;;;;6171482;22;20214;-62
2022/08/27 02:38:28;;;;;;;1.77;1.50;;;24.70;46.20;;;;;;6171068;22;20284;-65
2022/08/27 02:40:54;;;;;;;2.00;1.90;;;24.70;46.20;;;;;;6168025;22;20205;-62
2022/08/27 02:43:20;;;;;;;1.80;1.70;;;24.70;46.20;;;;;;6169612;22;20596;-61
2022/08/27 02:45:47;;;;;;;2.53;1.50;;;24.70;46.10;;;;;;6167052;22;20195;-61
2022/08/27 02:48:12;;;;;;;2.00;1.50;;;24.70;46.10;;;;;;6168246;22;20432;-64
2022/08/27 02:50:38;;;;;;;1.97;1.83;;;24.70;46.10;;;;;;6169243;22;20405;-62
2022/08/27 02:53:05;;;;;;;1.73;1.63;;;24.70;46.10;;;;;;6172143;22;20253;-61
2022/08/27 02:55:31;;;;;;;1.50;1.40;;;24.70;46.10;;;;;;6173586;23;20707;-62
2022/08/27 02:57:57;;;;;;;1.53;1.43;;;24.70;46.10;;;;;;6196518;22;20473;-62
2022/08/27 03:00:24;;;;;;;1.50;1.40;;;24.70;46.10;;;;;;6197037;22;20415;-62
2022/08/27 03:02:50;;;;;;;1.50;1.40;;;24.70;46.00;;;;;;6197369;22;20876;-62
2022/08/27 03:05:17;;;;;;;1.70;1.60;;;24.70;46.00;;;;;;6199694;22;20423;-63
2022/08/27 03:07:43;;;;;;;1.50;1.40;;;24.70;46.00;;;;;;6197375;22;20483;-62
2022/08/27 03:10:10;;;;;;;2.07;1.50;;;24.70;45.90;;;;;;6199726;22;20631;-60
2022/08/27 03:12:36;;;;;;;1.60;1.50;;;24.70;45.90;;;;;;6198139;22;20419;-62
2022/08/27 03:15:09;;;;;;;1.50;1.40;;;24.70;45.90;;;;;;6200091;22;20416;-63
2022/08/27 03:20:19;;;;;;;1.83;1.60;;;24.70;45.90;;;;;;6199767;22;20434;-60
2022/08/27 03:22:45;;;;;;;1.50;1.40;;;24.70;45.90;;;;;;6200369;22;20419;-61
2022/08/27 03:25:11;;;;;;;1.80;1.70;;;24.70;45.80;;;;;;6201025;22;20201;-61
2022/08/27 03:27:37;;;;;;;2.07;1.40;;;24.70;45.80;;;;;;6199453;22;20772;-62
2022/08/27 03:30:06;;;;;;;1.80;1.70;;;24.70;45.80;;;;;;6200149;22;20193;-65
2022/08/27 03:32:31;;;;;;;1.70;1.60;;;24.70;45.70;;;;;;6184935;22;20470;-61
2022/08/27 03:34:58;;;;;;;1.80;1.70;;;24.70;45.80;;;;;;6192258;22;20411;-61
2022/08/27 03:37:24;;;;;;;1.53;1.43;;;24.70;45.80;;;;;;6197896;23;20198;-62
2022/08/27 03:39:49;;;;;;;1.93;1.83;;;24.70;45.70;;;;;;6198170;22;20420;-61
2022/08/27 03:42:15;;;;;;;1.60;1.50;;;24.70;45.70;;;;;;6198712;22;20411;-60
2022/08/27 03:44:41;;;;;;;1.70;1.60;;;24.70;45.70;;;;;;6199134;22;20198;-64
2022/08/27 03:47:06;;;;;;;1.60;1.50;;;24.70;45.70;;;;;;6198413;22;20228;-64
2022/08/27 03:49:32;;;;;;;2.20;1.73;;;24.70;45.70;;;;;;6199538;22;20656;-65
2022/08/27 03:51:58;;;;;;;1.73;1.63;;;24.70;45.70;;;;;;6197385;22;20190;-62
2022/08/27 03:54:23;;;;;;;1.53;1.43;;;24.70;45.70;;;;;;6197190;22;20356;-63
2022/08/27 03:56:49;;;;;;;1.63;1.53;;;24.70;45.60;;;;;;6203589;22;20205;-61
2022/08/27 03:59:15;;;;;;;1.60;1.50;;;24.60;46.20;;;;;;6197419;22;20828;-60
2022/08/27 04:01:42;;;;;;;1.70;1.60;;;24.70;45.60;;;;;;6198859;22;20629;-61
2022/08/27 04:04:08;;;;;;;1.80;1.70;;;24.70;45.60;;;;;;6198670;22;20217;-60
2022/08/27 04:06:34;;;;;;;1.70;1.60;;;24.70;45.60;;;;;;6197682;22;20849;-61
2022/08/27 04:09:00;;;;;;;1.80;1.70;;;24.70;45.60;;;;;;6196948;22;20198;-61
2022/08/27 04:11:28;;;;;;;1.43;1.33;;;24.70;45.50;;;;;;6200984;22;20419;-61
2022/08/27 04:13:53;;;;;;;1.57;1.47;;;24.70;45.50;;;;;;6198117;22;20200;-63
2022/08/27 04:16:19;;;;;;;1.93;1.67;;;24.70;45.50;;;;;;6197570;22;20526;-62
2022/08/27 04:18:45;;;;;;;1.70;1.60;;;24.70;45.50;;;;;;6197175;22;20213;-61
2022/08/27 04:21:13;;;;;;;1.90;1.80;;;24.70;45.50;;;;;;6197545;22;20197;-65
2022/08/27 04:23:41;;;;;;;1.70;1.60;;;24.70;45.50;;;;;;6201360;22;20278;-62
2022/08/27 04:26:08;;;;;;;1.57;1.47;;;24.70;45.40;;;;;;6203811;22;20477;-61
2022/08/27 04:28:34;;;;;;;1.80;1.70;;;24.70;45.50;;;;;;6202055;22;20426;-61
2022/08/27 04:31:01;;;;;;;1.60;1.50;;;24.70;45.50;;;;;;6198752;22;20526;-64
2022/08/27 04:33:27;;;;;;;1.70;1.60;;;24.70;45.50;;;;;;6198896;22;20224;-65
2022/08/27 04:36:04;;;;;;;1.60;1.50;;;24.70;45.40;;;;;;6199444;22;20411;-61
2022/08/27 04:38:31;;;;;;;2.13;1.80;;;24.60;45.20;;;;;;6199322;22;20194;-65
2022/08/27 04:43:41;;;;;;;1.80;1.70;;;24.70;45.40;;;;;;6203966;22;20426;-61
2022/08/27 04:46:07;;;;;;;1.80;1.70;;;24.60;45.30;;;;;;6204767;22;20418;-65
2022/08/27 04:48:33;;;;;;;2.17;1.70;;;24.60;45.30;;;;;;6206940;22;20882;-60
2022/08/27 04:50:59;;;;;;;1.70;1.60;;;24.60;45.30;;;;;;6199885;22;20464;-60
2022/08/27 04:53:25;;;;;;;1.97;1.87;;;24.70;45.30;;;;;;6200679;22;21056;-61
2022/08/27 04:55:53;;;;;;;1.87;1.77;;;24.70;45.30;;;;;;6206471;22;20190;-62
2022/08/27 04:58:20;;;;;;;1.77;1.67;;;24.70;45.30;;;;;;6203625;22;20281;-61
2022/08/27 05:00:52;;;;;;;2.60;1.70;;;24.70;45.40;;;;;;6203490;22;20419;-63
2022/08/27 05:03:22;;;;;;;2.33;1.80;;;24.70;45.30;;;;;;6206035;22;20471;-60
2022/08/27 05:05:49;;;;;;;2.00;1.90;;;24.70;45.20;;;;;;6204437;22;20481;-60
2022/08/27 05:08:16;;;;;;;2.13;2.03;;;24.70;45.20;;;;;;6203165;22;20873;-63
2022/08/27 05:10:44;;;;;;;2.00;1.90;;;24.70;45.30;;;;;;6198668;22;20446;-61
2022/08/27 05:13:10;;;;;;;2.30;2.10;;;24.70;45.10;;;;;;6201502;22;20416;-64
2022/08/27 05:15:36;;;;;;;2.00;1.90;;;24.70;45.20;;;;;;6197795;22;20411;-62
2022/08/27 05:18:04;;;;;;;1.90;1.80;;;24.70;45.10;;;;;;6200982;22;20438;-62
2022/08/27 05:20:30;;;;;;;2.13;2.03;;;24.70;45.10;;;;;;6200653;22;20491;-64
2022/08/27 05:22:56;;;;;;;2.63;2.43;;;24.70;45.00;;;;;;6199304;22;20407;-65
2022/08/27 05:25:23;;;;;;;2.03;1.93;;;24.70;45.00;;;;;;6200647;22;20418;-65
2022/08/27 05:27:49;;;;;;;2.20;2.00;;;24.70;45.00;;;;;;6201899;22;20534;-60
2022/08/27 05:30:15;;;;;;;2.00;1.90;;;24.70;45.00;;;;;;6203771;22;20443;-66
2022/08/27 05:32:41;;;;;;;2.07;1.97;;;24.70;45.00;;;;;;6199017;22;21003;-64
2022/08/27 05:35:08;;;;;;;2.40;2.30;;;24.70;45.00;;;;;;6197893;22;20190;-65
2022/08/27 05:37:34;;;;;;;2.10;2.00;;;24.70;45.00;;;;;;6199917;22;20423;-61
2022/08/27 05:40:00;;;;;;;1.90;1.80;;;24.70;44.90;;;;;;6169180;22;20456;-62
2022/08/27 05:42:28;;;;;;;2.20;2.10;;;24.70;44.90;;;;;;6169074;22;20609;-59
2022/08/27 05:44:54;;;;;;;2.23;2.03;;;24.70;44.90;;;;;;6170808;22;20416;-65
2022/08/27 05:47:20;;;;;;;2.53;2.43;;;24.70;44.90;;;;;;6167643;23;20424;-64
2022/08/27 05:49:45;;;;;;;2.17;2.07;;;24.70;45.00;;;;;;6169154;22;20237;-62
2022/08/27 05:52:12;;;;;;;2.57;2.37;;;24.70;44.90;;;;;;6169827;22;20214;-65
2022/08/27 05:54:38;;;;;;;3.10;2.00;;;24.70;44.90;;;;;;6166794;22;20191;-61
2022/08/27 05:57:04;;;;;;;1.90;1.80;;;24.70;44.90;;;;;;6169182;22;20412;-60
2022/08/27 06:02:14;;;;;;;2.03;1.77;;;24.70;44.90;;;;;;6195492;22;20426;-63
2022/08/27 06:04:40;;;;;;;2.47;2.37;;;24.70;44.90;;;;;;6198438;22;20424;-62
2022/08/27 06:07:08;;;;;;;2.00;1.90;;;24.70;44.90;;;;;;6192395;23;20202;-61
2022/08/27 06:09:33;;;;;;;2.07;1.90;;;24.70;44.90;;;;;;6192753;22;20201;-61
2022/08/27 06:12:00;;;;;;;1.90;1.80;;;24.70;44.80;;;;;;6186945;22;21043;-62
2022/08/27 06:14:25;;;;;;;2.00;1.90;;;24.70;44.90;;;;;;6173835;23;20217;-62
2022/08/27 06:16:51;;;;;;;2.37;2.27;;;24.70;44.90;;;;;;6203881;22;20514;-64
2022/08/27 06:19:17;;;;;;;2.30;2.03;;;24.70;44.90;;;;;;6203031;22;20569;-61
2022/08/27 06:21:43;;;;;;;2.57;2.40;;;24.70;44.90;;;;;;6200726;22;20189;-63
2022/08/27 06:24:13;;;;;;;2.17;2.07;;;24.70;44.90;;;;;;6203061;23;20194;-62
2022/08/27 06:26:41;;;;;;;2.00;1.90;;;24.70;44.80;;;;;;6196350;23;20194;-62
2022/08/27 06:29:07;;;;;;;2.03;1.90;;;24.70;44.90;;;;;;6202965;23;20470;-62
2022/08/27 06:31:34;;;;;;;2.20;2.10;;;24.70;44.80;;;;;;6205087;22;20415;-61
2022/08/27 06:34:01;;;;;;;2.27;2.17;;;24.70;44.90;;;;;;6195881;22;20964;-61
2022/08/27 06:36:28;;;;;;;6.30;2.60;;;24.70;44.80;;;;;;6190615;22;20403;-62
2022/08/27 06:38:55;;;;;;;2.50;2.30;;;24.70;44.80;;;;;;6197885;22;20426;-62
2022/08/27 06:41:23;;;;;;;2.60;2.40;;;24.70;44.80;;;;;;6172194;23;20507;-61
2022/08/27 06:43:49;;;;;;;2.30;2.20;;;24.70;44.80;;;;;;6201057;23;20443;-60
2022/08/27 06:46:18;;;;;;;2.80;2.30;;;24.70;44.80;;;;;;6199459;22;21176;-61
2022/08/27 06:48:45;;;;;;;2.50;2.40;;;24.70;44.80;;;;;;6197000;22;20212;-61
2022/08/27 06:51:25;;;;;;;2.80;2.60;;;24.70;44.80;;;;;;6197602;22;20426;-61
2022/08/27 06:53:51;;;;;;;2.60;2.43;;;24.70;44.80;;;;;;6184153;23;20411;-64
2022/08/27 06:56:18;;;;;;;2.00;1.90;;;24.70;44.80;;;;;;6197115;22;20930;-63
2022/08/27 06:58:44;;;;;;;2.57;2.47;;;24.70;45.60;;;;;;6198221;22;20411;-60
2022/08/27 07:01:19;;;;;;;2.73;2.00;;;24.70;44.80;;;;;;6203199;22;20411;-64
2022/08/27 07:03:45;;;;;;;3.00;2.77;;;24.70;44.70;;;;;;6198058;22;20423;-62
2022/08/27 07:06:13;;;;;;;2.37;2.27;;;24.70;44.80;;;;;;6200808;22;20423;-65
2022/08/27 07:08:39;;;;;;;2.30;2.20;;;24.70;44.70;;;;;;6205103;22;20819;-62
2022/08/27 07:11:07;;;;;;;2.27;2.17;;;24.70;44.70;;;;;;6197121;22;20415;-63
2022/08/27 07:13:33;;;;;;;2.30;2.20;;;24.70;44.70;;;;;;6195650;22;20426;-63
2022/08/27 07:16:04;;;;;;;2.30;2.10;;;24.70;44.60;;;;;;6200066;22;20541;-70
2022/08/27 07:18:30;;;;;;;2.40;2.30;;;24.70;44.70;;;;;;6198819;23;20434;-69
2022/08/27 07:20:56;;;;;;;2.90;2.70;;;24.70;44.60;;;;;;6196745;22;20419;-66
2022/08/27 07:23:21;;;;;;;3.60;2.20;;;24.70;44.60;;;;;;6197702;22;20205;-65
2022/08/27 07:25:47;;;;;;;2.50;2.40;;;24.70;44.60;;;;;;6195898;23;20279;-63
2022/08/27 07:28:13;;;;;;;4.07;2.00;;;24.70;44.60;;;;;;6181442;22;20214;-62
2022/08/27 07:30:39;;;;;;;2.50;2.40;;;24.70;44.60;;;;;;6172370;23;20277;-63
2022/08/27 07:33:04;;;;;;;2.63;2.53;;;24.70;44.60;;;;;;6199458;23;20942;-66
2022/08/27 07:35:30;;;;;;;2.40;2.27;;;24.70;44.60;;;;;;6198459;23;20974;-63
2022/08/27 07:37:56;;;;;;;2.83;2.73;;;24.70;44.50;;;;;;6199065;23;20186;-64
2022/08/27 07:40:23;;;;;;;2.10;2.00;;;24.70;44.60;;;;;;6202709;22;20566;-62
2022/08/27 07:45:33;;;;;;;2.33;2.20;;;24.70;44.50;;;;;;6198627;22;20489;-63
2022/08/27 07:47:59;;;;;;;2.23;2.13;;;24.70;44.50;;;;;;6200602;22;20427;-64
2022/08/27 07:50:25;;;;;;;2.40;2.20;;;24.70;44.50;;;;;;6200870;22;20760;-65
2022/08/27 07:52:51;;;;;;;2.43;2.23;;;24.70;44.50;;;;;;6202706;22;20194;-63
2022/08/27 07:55:17;;;;;;;2.17;2.07;;;24.70;44.50;;;;;;6203997;22;20196;-62
2022/08/27 07:57:44;;;;;;;2.43;2.23;;;24.70;44.40;;;;;;6202086;22;20190;-62
2022/08/27 08:00:11;;;;;;;2.40;2.30;;;24.70;44.40;;;;;;6195265;22;20419;-62
2022/08/27 08:02:38;;;;;;;2.63;2.40;;;24.70;44.30;;;;;;6200542;22;20419;-63
2022/08/27 08:05:05;;;;;;;2.40;2.30;;;24.70;44.50;;;;;;6199281;22;20454;-62
2022/08/27 08:07:32;;;;;;;2.97;2.77;;;24.70;44.30;;;;;;6203864;22;21232;-63
2022/08/27 08:09:58;;;;;;;2.70;2.20;;;24.70;44.30;;;;;;6200352;22;20412;-61
2022/08/27 08:12:24;;;;;;;2.40;2.30;;;24.70;44.20;;;;;;6201872;22;20415;-66
2022/08/27 08:14:54;;;;;;;2.20;2.10;;;24.70;44.30;;;;;;6202310;22;20445;-62
2022/08/27 08:17:20;;;;;;;1.90;1.80;;;24.70;44.30;;;;;;6197016;22;20720;-63
2022/08/27 08:19:48;;;;;;;2.30;1.97;;;24.70;44.30;;;;;;6201912;22;20529;-64
2022/08/27 08:22:15;;;;;;;2.27;2.17;;;24.70;44.20;;;;;;6198590;22;20202;-63
2022/08/27 08:24:40;;;;;;;2.10;2.00;;;24.70;44.20;;;;;;6198208;22;20534;-61
2022/08/27 08:27:06;;;;;;;2.80;2.60;;;24.70;44.20;;;;;;6196590;22;20193;-65
2022/08/27 08:29:31;;;;;;;2.40;2.20;;;24.70;44.10;;;;;;6202029;22;20213;-64
2022/08/27 08:31:57;;;;;;;2.07;1.97;;;24.70;44.10;;;;;;6201973;22;20255;-62
2022/08/27 08:34:22;;;;;;;2.00;1.90;;;24.70;44.10;;;;;;6201460;22;20634;-63
2022/08/27 08:36:48;;;;;;;2.60;2.40;;;24.70;44.20;;;;;;6204078;22;20198;-62
2022/08/27 08:39:13;;;;;;;2.50;2.40;;;24.70;44.10;;;;;;6204097;22;20339;-64
2022/08/27 08:41:52;;;;;;;2.30;2.13;;;24.70;44.10;;;;;;6205050;22;20206;-62
2022/08/27 08:44:39;;;;;;;2.17;2.07;;;24.70;44.10;;;;;;6204104;22;20209;-62
2022/08/27 08:47:22;;;;;;;2.40;2.20;;;24.70;44.10;;;;;;6202215;22;20412;-64
2022/08/27 08:50:12;;;;;;;2.63;2.43;;;24.70;44.10;;;;;;6202339;22;20423;-63
2022/08/27 08:53:01;;;;;;;2.23;1.97;;;24.60;44.80;;;;;;6202192;22;20404;-62
2022/08/27 08:55:46;;;;;;;2.17;2.07;;;24.70;44.10;;;;;;6198089;22;20422;-63
2022/08/27 08:58:17;;;;;;;2.93;2.73;;;24.70;44.10;;;;;;6202983;22;20419;-63
2022/08/27 09:00:47;;;;;;;2.70;2.60;;;24.60;44.00;;;;;;6201197;22;20424;-64
2022/08/27 09:03:14;;;;;;;2.90;2.70;;;24.70;44.10;;;;;;6200920;22;20485;-65
2022/08/27 09:05:46;;;;;;;2.90;2.70;;;24.70;44.10;;;;;;6201668;22;20431;-62
2022/08/27 09:08:35;;;;;;;2.57;2.37;;;24.60;44.00;;;;;;6201926;22;21048;-61
2022/08/27 09:11:08;;;;;;;1.93;1.83;;;24.70;44.10;;;;;;6202508;22;20530;-62
2022/08/27 09:13:40;;;;;;;2.90;2.70;;;24.60;44.00;;;;;;6205405;22;20412;-63
2022/08/27 09:16:06;;;;;;;2.80;2.60;;;24.60;43.90;;;;;;6204665;23;20407;-63
2022/08/27 09:18:36;;;;;;;2.30;2.20;;;24.60;44.00;;;;;;6206474;23;20442;-61
2022/08/27 09:21:29;;;;;;;2.40;2.30;;;24.60;43.90;;;;;;6175664;23;20230;-61
2022/08/27 09:24:27;;;;;;;2.67;2.47;;;24.70;44.00;;;;;;6200309;22;27897;-62
2022/08/27 09:26:53;;;;;;;2.70;2.50;;;24.60;44.00;;;;;;6119776;22;20415;-63
2022/08/27 09:29:19;;;;;;;2.70;2.50;;;24.60;43.90;;;;;;6204989;22;20438;-63
2022/08/27 09:31:57;;;;;;;2.70;2.33;;;24.60;43.90;;;;;;6175632;22;20420;-61
2022/08/27 09:34:26;;;;;;;2.33;2.23;;;24.70;43.90;;;;;;6201824;22;20300;-65
2022/08/27 09:36:54;;;;;;;2.00;1.90;;;24.60;43.80;;;;;;6200726;22;20420;-64
2022/08/27 09:39:30;;;;;;;2.20;2.10;;;24.60;43.80;;;;;;6198921;22;20477;-64
2022/08/27 09:41:57;;;;;;;2.37;2.27;;;24.60;43.80;;;;;;6202322;22;20411;-63
2022/08/27 09:44:23;;;;;;;2.10;1.90;;;24.60;43.80;;;;;;6201051;22;20415;-65
2022/08/27 09:46:58;;;;;;;2.40;2.20;;;24.60;43.80;;;;;;6201280;22;20522;-65
2022/08/27 09:49:24;;;;;;;2.40;2.20;;;24.60;43.70;;;;;;6169979;22;20201;-65
2022/08/27 09:51:51;;;;;;;2.57;2.47;;;24.60;43.70;;;;;;6202497;22;20728;-65
2022/08/27 09:54:42;;;;;;;2.43;2.33;;;24.60;43.70;;;;;;6196365;22;20415;-67
2022/08/27 09:57:11;;;;;;;2.40;2.20;;;24.60;43.70;;;;;;6197192;23;20418;-66
2022/08/27 09:59:42;;;;;;;2.10;2.00;;;24.60;43.60;;;;;;6184965;23;20483;-65
2022/08/27 10:02:18;;;;;;;2.17;2.07;;;24.60;43.60;;;;;;6184989;23;20419;-64
2022/08/27 10:04:46;;;;;;;2.43;2.30;;;24.60;43.60;;;;;;6202499;22;21008;-63
2022/08/27 10:07:37;;;;;;;2.40;2.30;;;24.60;43.50;;;;;;6200017;22;20443;-63
2022/08/27 10:10:37;;;;;;;2.73;2.53;;;24.70;43.50;;;;;;6198691;23;20427;-63
2022/08/27 10:13:19;;;;;;;2.80;2.60;;;24.70;43.30;;;;;;6167620;22;20417;-62
2022/08/27 10:16:24;;;;;;;2.23;2.13;;;24.70;43.40;;;;;;6198588;22;20419;-62
2022/08/27 10:19:17;;;;;;;2.50;2.30;;;24.60;43.20;;;;;;6147326;22;20831;-63
2022/08/27 10:22:06;;;;;;;2.73;2.53;;;24.70;43.50;;;;;;6199062;22;20416;-63
2022/08/27 10:24:32;;;;;;;2.20;2.10;;;24.60;43.60;;;;;;6176834;23;20502;-62
2022/08/27 10:27:16;;;;;;;1.90;1.80;;;24.60;43.20;;;;;;6204797;22;21148;-63
2022/08/27 10:30:03;;;;;;;4.80;2.50;;;24.60;43.20;;;;;;6197694;22;20381;-64
2022/08/27 10:33:05;;;;;;;2.53;2.40;;;24.60;43.20;;;;;;6203215;22;20411;-63
2022/08/27 10:35:43;;;;;;;2.30;2.20;;;24.60;43.20;;;;;;6194813;22;20415;-64
2022/08/27 10:38:23;;;;;;;2.60;2.40;;;24.60;43.20;;;;;;6170866;23;20455;-64
2022/08/27 10:41:05;;;;;;;3.67;2.33;;;24.60;43.20;;;;;;6174289;23;20463;-63
2022/08/27 10:43:39;;;;;;;2.80;2.47;;;24.70;43.50;;;;;;6193543;23;20416;-63
2022/08/27 10:46:37;;;;;;;2.73;2.57;;;24.70;43.40;;;;;;6190845;22;20431;-63
2022/08/27 10:49:22;;;;;;;2.77;2.63;;;24.70;43.30;;;;;;6201701;22;20504;-67
2022/08/27 10:52:23;;;;;;;2.80;2.60;;;24.70;43.30;;;;;;6159085;23;20948;-63
2022/08/27 10:54:55;;;;;;;2.97;2.77;;;24.70;43.30;;;;;;6191913;23;20882;-62
2022/08/27 10:57:39;;;;;;;3.00;2.80;;;24.70;43.30;;;;;;6182990;22;20511;-66
2022/08/27 11:00:12;;;;;;;5.23;2.60;;;24.70;43.30;;;;;;6183566;22;20462;-64
2022/08/27 11:02:45;;;;;;;3.60;2.47;;;24.70;43.30;;;;;;6155390;23;20425;-64
2022/08/27 11:05:16;;;;;;;2.73;2.63;;;24.70;43.30;;;;;;6190986;22;20424;-63
2022/08/27 11:07:48;;;;;;;3.00;2.80;;;24.70;43.30;;;;;;6201508;22;20415;-63
2022/08/27 11:10:29;;;;;;;4.00;2.53;;;24.70;43.30;;;;;;6199467;22;20419;-62
2022/08/27 11:13:03;;;;;;;2.87;2.60;;;24.70;43.30;;;;;;6171310;23;20388;-63
2022/08/27 11:15:35;;;;;;;4.87;2.73;;;24.70;43.30;;;;;;6190308;22;20443;-64
2022/08/27 11:18:26;;;;;;;3.50;2.40;;;24.70;43.30;;;;;;6196042;22;20430;-65
2022/08/27 11:21:00;;;;;;;4.50;2.97;;;24.70;43.30;;;;;;6203510;23;20470;-62
2022/08/27 11:23:45;;;;;;;2.60;2.50;;;24.70;43.30;;;;;;6199825;23;20429;-62
2022/08/27 11:26:11;;;;;;;2.57;2.40;;;24.70;43.30;;;;;;6198468;23;20419;-63
2022/08/27 11:28:53;;;;;;;2.73;2.53;;;24.70;43.30;;;;;;6203152;22;20726;-64
2022/08/27 11:31:31;;;;;;;2.30;2.20;;;24.60;43.20;;;;;;6196619;22;20209;-65
2022/08/27 11:34:00;;;;;;;3.00;2.03;;;24.70;43.30;;;;;;6197886;22;20746;-62
2022/08/27 11:36:51;;;;;;;3.47;2.27;;;24.60;43.20;;;;;;6203736;22;20423;-62
2022/08/27 11:39:38;;;;;;;2.07;1.80;;;24.70;43.30;;;;;;6108865;23;20508;-63
2022/08/27 11:42:38;;;;;;;2.30;2.10;;;24.70;43.30;;;;;;6110069;23;20422;-63
2022/08/27 11:45:28;;;;;;;2.77;2.10;;;24.70;43.30;;;;;;6099794;23;20533;-66
2022/08/27 11:48:01;;;;;;;2.47;2.37;;;24.70;43.30;;;;;;6105107;23;20898;-64
2022/08/27 11:50:32;;;;;;;2.33;2.13;;;24.70;43.40;;;;;;6088790;23;20422;-63
2022/08/27 11:53:05;;;;;;;2.73;2.53;;;24.70;43.80;;;;;;6108336;23;20426;-63
2022/08/27 11:55:36;;;;;;;2.57;2.47;;;24.70;44.10;;;;;;6101274;23;20469;-63
2022/08/27 11:58:16;;;;;;;2.53;2.30;;;24.60;43.20;;;;;;6110178;23;20414;-63
2022/08/27 12:00:44;;;;;;;2.93;2.73;;;24.70;43.30;;;;;;6094245;23;20425;-64
2022/08/27 12:03:30;;;;;;;2.90;2.20;;;24.70;43.30;;;;;;6110951;23;20425;-66
2022/08/27 12:05:55;;;;;;;2.80;1.90;;;24.70;43.30;;;;;;6112796;23;20449;-64
2022/08/27 12:08:21;;;;;;;2.27;2.17;;;24.60;43.20;;;;;;6104516;23;20469;-64
2022/08/27 12:11:15;;;;;;;2.43;2.30;;;24.60;43.20;;;;;;6177449;23;20193;-62
2022/08/27 12:14:23;;;;;;;2.50;2.40;;;24.70;43.30;;;;;;6171340;23;20199;-64
2022/08/27 12:17:09;;;;;;;2.27;1.97;;;24.60;43.20;;;;;;6201313;22;20434;-65
2022/08/27 12:19:44;;;;;;;2.00;1.90;;;24.60;44.00;;;;;;6199666;22;20454;-64
2022/08/27 12:22:16;;;;;;;2.00;1.90;;;24.60;43.20;;;;;;6201519;23;20904;-64
2022/08/27 12:24:52;;;;;;;2.20;2.10;;;24.60;43.20;;;;;;6201729;23;20986;-63
2022/08/27 12:27:20;;;;;;;4.20;2.00;;;24.60;43.20;;;;;;6198402;22;20419;-63
2022/08/27 12:29:55;;;;;;;2.30;2.20;;;24.60;43.20;;;;;;6201211;22;20475;-63
2022/08/27 12:32:36;;;;;;;2.27;2.10;;;24.60;43.20;;;;;;6203278;22;20423;-64
2022/08/27 12:35:13;;;;;;;2.13;1.93;;;24.60;43.20;;;;;;6175043;23;20975;-62
2022/08/27 12:38:20;;;;;;;2.13;2.03;;;24.60;43.20;;;;;;6192246;22;20419;-65
2022/08/27 12:40:52;;;;;;;2.00;1.90;;;24.60;43.20;;;;;;6158313;23;20422;-64
2022/08/27 12:43:26;;;;;;;2.90;2.00;;;24.60;43.20;;;;;;6194949;22;20423;-65
2022/08/27 12:46:02;;;;;;;2.20;1.70;;;24.60;43.20;;;;;;6195243;22;20913;-64
2022/08/27 12:48:32;;;;;;;2.07;1.97;;;24.60;43.20;;;;;;6194767;22;20431;-66
2022/08/27 12:51:07;;;;;;;2.10;2.00;;;24.60;43.30;;;;;;6197986;22;20412;-65
2022/08/27 12:53:43;;;;;;;2.53;2.33;;;24.60;43.20;;;;;;6184435;23;20497;-63
2022/08/27 12:56:17;;;;;;;2.20;1.80;;;24.60;43.20;;;;;;6196994;22;20405;-64
2022/08/27 12:59:11;;;;;;;1.87;1.73;;;24.60;43.20;;;;;;6186745;22;20434;-64
2022/08/27 13:02:18;;;;;;;2.23;2.03;;;24.60;43.20;;;;;;6192392;22;20410;-64
2022/08/27 13:04:45;;;;;;;2.33;2.23;;;24.60;43.20;;;;;;6195685;22;20427;-66
2022/08/27 13:07:11;;;;;;;2.17;2.07;;;24.60;43.20;;;;;;6167488;22;20498;-63
2022/08/27 13:09:38;;;;;;;2.00;1.90;;;24.60;43.20;;;;;;6164112;22;20948;-63
2022/08/27 13:12:18;;;;;;;1.83;1.73;;;24.60;43.20;;;;;;6173114;23;20708;-63
2022/08/27 13:14:44;;;;;;;2.60;2.43;;;24.60;43.20;;;;;;6190729;22;20430;-66
2022/08/27 13:17:19;;;;;;;1.80;1.70;;;24.60;43.20;;;;;;6199332;22;20430;-65